createdAt,value
2022-08-17T00:00:43.078Z,98768.81
2022-08-17T00:03:21.062Z,98768.75
2022-08-17T00:06:12.252Z,98776.00
2022-08-17T00:08:48.879Z,98778.72
2022-08-17T00:11:23.626Z,98778.31
2022-08-17T00:13:59.790Z,98782.91
2022-08-17T00:16:55.334Z,98786.34
2022-08-17T00:19:26.565Z,98739.91
2022-08-17T00:22:31.261Z,98751.53
2022-08-17T00:24:48.775Z,98786.81
2022-08-17T00:27:17.358Z,98733.78
2022-08-17T00:29:46.000Z,98787.78
2022-08-17T00:33:12.321Z,98787.78
2022-08-17T00:35:08.690Z,98782.84
2022-08-17T00:37:36.964Z,98770.53
2022-08-17T00:40:06.709Z,98796.94
2022-08-17T00:42:35.098Z,98779.63
2022-08-17T00:45:06.285Z,98761.06
2022-08-17T00:47:34.147Z,98799.31
2022-08-17T00:50:02.804Z,98761.56
2022-08-17T00:52:37.473Z,98790.97
2022-08-17T00:55:07.369Z,98799.09
2022-08-17T00:57:54.755Z,98784.78
2022-08-17T01:00:29.942Z,98799.72
2022-08-17T01:03:10.610Z,98786.09
2022-08-17T01:05:42.108Z,98772.34
2022-08-17T01:08:15.580Z,98812.28
2022-08-17T01:11:00.381Z,98778.41
2022-08-17T01:13:42.032Z,98815.84
2022-08-17T01:16:27.806Z,98787.22
2022-08-17T01:19:02.145Z,98812.22
2022-08-17T01:21:51.461Z,98816.56
2022-08-17T01:24:19.696Z,98820.75
2022-08-17T01:26:48.582Z,98800.69
2022-08-17T01:29:17.107Z,98806.72
2022-08-17T01:31:54.061Z,98774.63
2022-08-17T01:34:22.985Z,98797.59
2022-08-17T01:36:56.681Z,98783.84
2022-08-17T01:39:38.668Z,98806.38
2022-08-17T01:42:20.870Z,98739.00
2022-08-17T01:44:51.003Z,98765.88
2022-08-17T01:47:19.058Z,98799.34
2022-08-17T01:49:48.281Z,98803.31
2022-08-17T01:52:17.142Z,98805.81
2022-08-17T01:54:48.405Z,98808.53
2022-08-17T01:57:16.645Z,98766.97
2022-08-17T01:59:44.624Z,98799.44
2022-08-17T02:02:12.780Z,98803.19
2022-08-17T02:05:00.875Z,98788.50
2022-08-17T02:07:29.233Z,98787.50
2022-08-17T02:09:57.298Z,98801.53
2022-08-17T02:12:39.039Z,98802.34
2022-08-17T02:15:12.534Z,98805.25
2022-08-17T02:17:41.176Z,98804.06
2022-08-17T02:20:10.831Z,98794.06
2022-08-17T02:22:43.551Z,98766.38
2022-08-17T02:25:18.050Z,98790.19
2022-08-17T02:27:47.736Z,98792.69
2022-08-17T02:31:02.253Z,98797.88
2022-08-17T02:33:09.248Z,98772.25
2022-08-17T02:35:38.477Z,98802.22
2022-08-17T02:38:07.429Z,98769.81
2022-08-17T02:40:37.571Z,98802.53
2022-08-17T02:43:05.713Z,98812.28
2022-08-17T02:45:33.958Z,98775.31
2022-08-17T02:48:02.309Z,98797.06
2022-08-17T02:50:30.770Z,98813.41
2022-08-17T02:53:01.561Z,98795.63
2022-08-17T02:55:35.612Z,98809.09
2022-08-17T02:58:05.210Z,98796.47
2022-08-17T03:00:41.769Z,98820.06
2022-08-17T03:03:11.093Z,98813.69
2022-08-17T03:05:40.081Z,98808.13
2022-08-17T03:08:10.472Z,98822.56
2022-08-17T03:10:42.823Z,98817.41
2022-08-17T03:13:13.107Z,98813.25
2022-08-17T03:15:45.322Z,98810.53
2022-08-17T03:18:24.331Z,98818.03
2022-08-17T03:20:56.646Z,98803.13
2022-08-17T03:23:25.888Z,98839.53
2022-08-17T03:25:56.088Z,98808.94
2022-08-17T03:28:25.104Z,98795.66
2022-08-17T03:30:53.438Z,98835.78
2022-08-17T03:33:21.931Z,98836.78
2022-08-17T03:35:50.328Z,98831.19
2022-08-17T03:38:19.092Z,98841.75
2022-08-17T03:40:56.360Z,98800.94
2022-08-17T03:43:32.773Z,98773.44
2022-08-17T03:46:34.660Z,98841.22
2022-08-17T03:49:26.422Z,98842.22
2022-08-17T03:52:15.699Z,98834.97
2022-08-17T03:55:03.789Z,98832.28
2022-08-17T03:57:32.609Z,98807.22
2022-08-17T04:00:00.573Z,98841.53
2022-08-17T04:02:34.363Z,98828.53
2022-08-17T04:05:02.473Z,98853.28
2022-08-17T04:07:31.685Z,98848.69
2022-08-17T04:10:00.542Z,98841.22
2022-08-17T04:12:32.187Z,98849.47
2022-08-17T04:15:00.449Z,98849.44
2022-08-17T04:17:29.824Z,98854.44
2022-08-17T04:19:58.125Z,98787.00
2022-08-17T04:22:32.917Z,98849.97
2022-08-17T04:25:18.805Z,98851.00
2022-08-17T04:27:48.421Z,98852.97
2022-08-17T04:30:16.691Z,98850.47
2022-08-17T04:33:10.779Z,98818.63
2022-08-17T04:35:42.830Z,98842.69
2022-08-17T04:38:15.915Z,98851.59
2022-08-17T04:41:03.330Z,98851.59
2022-08-17T04:43:34.431Z,98862.72
2022-08-17T04:46:07.476Z,98858.97
2022-08-17T04:48:40.376Z,98854.56
2022-08-17T04:51:20.654Z,98863.56
2022-08-17T04:53:54.454Z,98863.06
2022-08-17T04:56:26.013Z,98861.09
2022-08-17T04:58:59.535Z,98860.69
2022-08-17T05:01:31.194Z,98841.41
2022-08-17T05:04:20.984Z,98855.59
2022-08-17T05:06:52.596Z,98854.97
2022-08-17T05:09:21.172Z,98862.16
2022-08-17T05:11:49.114Z,98854.44
2022-08-17T05:14:17.231Z,98853.03
2022-08-17T05:16:46.272Z,98810.84
2022-08-17T05:19:14.434Z,98855.81
2022-08-17T05:21:42.417Z,98791.31
2022-08-17T05:24:35.369Z,98852.25
2022-08-17T05:27:02.578Z,98862.81
2022-08-17T05:29:35.696Z,98859.44
2022-08-17T05:32:38.146Z,98823.69
2022-08-17T05:35:02.584Z,98830.94
2022-08-17T05:37:30.504Z,98866.56
2022-08-17T05:39:58.438Z,98838.47
2022-08-17T05:42:26.901Z,98874.00
2022-08-17T05:44:58.873Z,98871.69
2022-08-17T05:47:27.796Z,98838.16
2022-08-17T05:49:56.263Z,98881.34
2022-08-17T05:52:59.794Z,98879.16
2022-08-17T05:55:51.804Z,98854.22
2022-08-17T05:58:56.205Z,98873.66
2022-08-17T06:01:42.156Z,98865.09
2022-08-17T06:04:20.341Z,98833.56
2022-08-17T06:06:59.459Z,98866.53
2022-08-17T06:10:12.615Z,98866.78
2022-08-17T06:13:15.919Z,98872.09
2022-08-17T06:16:05.081Z,98884.69
2022-08-17T06:19:19.571Z,98874.97
2022-08-17T06:21:53.218Z,98877.19
2022-08-17T06:24:30.259Z,98872.72
2022-08-17T06:27:23.304Z,98868.50
2022-08-17T06:30:10.558Z,98865.38
2022-08-17T06:32:43.723Z,98857.84
2022-08-17T06:35:15.920Z,98828.81
2022-08-17T06:38:37.637Z,98866.00
2022-08-17T06:41:56.028Z,98867.03
2022-08-17T06:44:50.213Z,98849.59
2022-08-17T06:47:27.927Z,98866.28
2022-08-17T06:50:17.551Z,98871.34
2022-08-17T06:53:04.597Z,98875.19
2022-08-17T06:55:52.859Z,98841.16
2022-08-17T06:58:29.474Z,98881.63
2022-08-17T07:01:06.125Z,98860.09
2022-08-17T07:03:54.884Z,98888.66
2022-08-17T07:06:28.790Z,98873.84
2022-08-17T07:09:32.136Z,98875.13
2022-08-17T07:12:20.587Z,98841.03
2022-08-17T07:15:12.793Z,98854.94
2022-08-17T07:17:47.347Z,98867.34
2022-08-17T07:20:22.875Z,98892.97
2022-08-17T07:23:26.839Z,98885.16
2022-08-17T07:26:06.002Z,98882.19
2022-08-17T07:28:36.203Z,98848.28
2022-08-17T07:31:05.182Z,98847.97
2022-08-17T07:33:36.978Z,98876.38
2022-08-17T07:36:05.857Z,98886.91
2022-08-17T07:38:35.712Z,98847.38
2022-08-17T07:41:08.714Z,98883.22
2022-08-17T07:43:39.567Z,98883.16
2022-08-17T07:46:43.797Z,98850.59
2022-08-17T07:49:12.733Z,98892.09
2022-08-17T07:51:56.652Z,98887.69
2022-08-17T07:54:42.549Z,98883.88
2022-08-17T07:57:13.380Z,98882.97
2022-08-17T08:00:01.983Z,98885.16
2022-08-17T08:02:45.591Z,98891.66
2022-08-17T08:05:49.727Z,98885.13
2022-08-17T08:08:42.867Z,98882.59
2022-08-17T08:11:28.568Z,98852.00
2022-08-17T08:14:16.927Z,98881.56
2022-08-17T08:17:03.784Z,98856.47
2022-08-17T08:19:34.753Z,98885.47
2022-08-17T08:22:18.892Z,98885.19
2022-08-17T08:25:33.145Z,98891.47
2022-08-17T08:28:28.163Z,98857.72
2022-08-17T08:31:33.672Z,98887.75
2022-08-17T08:35:01.352Z,98878.38
2022-08-17T08:38:20.253Z,98883.53
2022-08-17T08:41:03.653Z,98885.84
2022-08-17T08:43:52.234Z,98886.09
2022-08-17T08:46:54.594Z,98889.94
2022-08-17T08:50:02.667Z,98889.22
2022-08-17T08:52:48.347Z,98885.59
2022-08-17T08:55:45.644Z,98890.13
2022-08-17T08:58:43.749Z,98885.97
2022-08-17T09:01:35.311Z,98884.16
2022-08-17T09:05:02.673Z,98883.16
2022-08-17T09:07:36.884Z,98879.38
2022-08-17T09:10:30.033Z,98883.19
2022-08-17T09:13:24.332Z,98882.09
2022-08-17T09:16:29.762Z,98888.41
2022-08-17T09:19:30.662Z,98879.75
2022-08-17T09:22:43.117Z,98859.59
2022-08-17T09:25:29.372Z,98866.41
2022-08-17T09:28:16.566Z,98793.78
2022-08-17T09:30:54.704Z,98878.75
2022-08-17T09:33:27.279Z,98876.72
2022-08-17T09:36:32.864Z,98856.22
2022-08-17T09:39:10.445Z,98885.34
2022-08-17T09:42:17.002Z,98846.88
2022-08-17T09:44:58.929Z,98897.78
2022-08-17T09:47:45.634Z,98869.91
2022-08-17T09:51:01.649Z,98880.81
2022-08-17T09:53:38.856Z,98900.84
2022-08-17T09:56:25.388Z,98898.09
2022-08-17T09:59:21.189Z,98898.19
2022-08-17T10:02:15.625Z,98894.34
2022-08-17T10:04:50.887Z,98891.47
2022-08-17T10:07:56.249Z,98902.31
2022-08-17T10:10:56.212Z,98866.31
2022-08-17T10:14:36.248Z,98894.81
2022-08-17T10:17:32.015Z,98894.47
2022-08-17T10:20:29.599Z,98894.75
2022-08-17T10:23:40.431Z,98895.88
2022-08-17T10:26:20.828Z,98888.50
2022-08-17T10:29:19.981Z,98891.28
2022-08-17T10:31:55.122Z,98892.81
2022-08-17T10:34:38.911Z,98892.72
2022-08-17T10:37:48.903Z,98890.50
2022-08-17T10:40:32.775Z,98891.38
2022-08-17T10:44:37.312Z,98887.66
2022-08-17T10:46:57.237Z,98893.38
2022-08-17T10:49:38.601Z,98903.94
2022-08-17T10:52:24.971Z,98898.00
2022-08-17T10:54:57.812Z,98896.97
2022-08-17T10:57:48.105Z,98898.66
2022-08-17T11:00:16.281Z,98896.38
2022-08-17T11:02:53.463Z,98897.94
2022-08-17T11:05:50.473Z,98835.28
2022-08-17T11:08:49.070Z,98894.44
2022-08-17T11:11:36.055Z,98861.63
2022-08-17T11:14:34.884Z,98895.53
2022-08-17T11:17:23.324Z,98865.91
2022-08-17T11:20:39.833Z,98899.78
2022-08-17T11:23:30.803Z,98900.34
2022-08-17T11:26:04.356Z,98870.88
2022-08-17T11:28:45.640Z,98897.69
2022-08-17T11:31:42.956Z,98914.38
2022-08-17T11:34:23.278Z,98901.72
2022-08-17T11:37:06.863Z,98917.50
2022-08-17T11:39:56.905Z,98909.06
2022-08-17T11:42:25.835Z,98902.31
2022-08-17T11:45:19.556Z,98873.94
2022-08-17T11:48:50.375Z,98901.41
2022-08-17T11:51:34.937Z,98891.47
2022-08-17T11:54:32.204Z,98893.00
2022-08-17T11:57:43.067Z,98896.91
2022-08-17T12:01:01.838Z,98899.44
2022-08-17T12:03:33.482Z,98901.06
2022-08-17T12:06:30.378Z,98907.03
2022-08-17T12:09:18.393Z,98900.22
2022-08-17T12:12:13.287Z,98911.69
2022-08-17T12:15:11.622Z,98898.44
2022-08-17T12:17:52.398Z,98839.41
2022-08-17T12:20:43.489Z,98901.84
2022-08-17T12:23:31.142Z,98879.19
2022-08-17T12:26:20.019Z,98904.94
2022-08-17T12:28:53.993Z,98906.72
2022-08-17T12:31:51.227Z,98908.88
2022-08-17T12:34:21.276Z,98904.06
2022-08-17T12:36:52.168Z,98896.16
2022-08-17T12:39:25.054Z,98887.50
2022-08-17T12:42:02.679Z,98889.50
2022-08-17T12:44:35.824Z,98859.03
2022-08-17T12:47:22.757Z,98875.22
2022-08-17T12:50:04.074Z,98870.47
2022-08-17T12:52:33.216Z,98862.63
2022-08-17T12:55:06.591Z,98873.81
2022-08-17T12:57:43.328Z,98915.38
2022-08-17T13:00:35.452Z,98897.25
2022-08-17T13:03:36.399Z,98898.00
2022-08-17T13:06:08.411Z,98893.94
2022-08-17T13:08:41.774Z,98872.56
2022-08-17T13:11:30.172Z,98903.84
2022-08-17T13:14:10.326Z,98914.47
2022-08-17T13:16:38.441Z,98900.97
2022-08-17T13:19:15.978Z,98907.09
2022-08-17T13:21:49.384Z,98906.81
2022-08-17T13:24:37.879Z,98907.00
2022-08-17T13:27:13.173Z,98907.81
2022-08-17T13:29:51.176Z,98906.22
2022-08-17T13:32:45.154Z,98901.41
2022-08-17T13:35:38.997Z,98906.16
2022-08-17T13:38:16.641Z,98909.88
2022-08-17T13:40:50.362Z,98905.28
2022-08-17T13:43:45.402Z,98901.44
2022-08-17T13:46:32.447Z,98905.59
2022-08-17T13:49:12.345Z,98903.22
2022-08-17T13:51:46.804Z,98905.50
2022-08-17T13:54:35.733Z,98903.03
2022-08-17T13:57:20.900Z,98908.09
2022-08-17T13:59:55.929Z,98908.53
2022-08-17T14:02:27.817Z,98902.31
2022-08-17T14:04:58.535Z,98897.84
2022-08-17T14:07:33.965Z,98898.19
2022-08-17T14:10:27.023Z,98898.03
2022-08-17T14:12:55.234Z,98890.44
2022-08-17T14:15:55.245Z,98903.31
2022-08-17T14:18:14.701Z,98894.69
2022-08-17T14:20:42.758Z,98860.91
2022-08-17T14:23:11.243Z,98874.88
2022-08-17T14:25:40.368Z,98908.13
2022-08-17T14:28:08.508Z,98882.31
2022-08-17T14:30:37.831Z,98890.22
2022-08-17T14:33:09.311Z,98883.94
2022-08-17T14:35:37.291Z,98876.56
2022-08-17T14:38:06.127Z,98915.28
2022-08-17T14:40:35.429Z,98911.53
2022-08-17T14:43:03.465Z,98886.91
2022-08-17T14:45:32.681Z,98918.75
2022-08-17T14:48:09.584Z,98916.41
2022-08-17T14:50:41.395Z,98913.47
2022-08-17T14:53:13.739Z,98884.97
2022-08-17T14:55:42.146Z,98908.22
2022-08-17T14:58:10.519Z,98918.72
2022-08-17T15:00:40.224Z,98908.63
2022-08-17T15:03:11.901Z,98876.28
2022-08-17T15:05:40.576Z,98881.59
2022-08-17T15:08:08.674Z,98911.47
2022-08-17T15:10:37.494Z,98903.22
2022-08-17T15:13:21.839Z,98886.91
2022-08-17T15:15:50.541Z,98880.47
2022-08-17T15:18:18.770Z,98881.72
2022-08-17T15:20:51.077Z,98877.06
2022-08-17T15:23:22.518Z,98908.59
2022-08-17T15:25:53.558Z,98901.56
2022-08-17T15:28:25.303Z,98902.25
2022-08-17T15:30:54.730Z,98890.44
2022-08-17T15:33:30.371Z,98925.41
2022-08-17T15:36:03.909Z,98920.34
2022-08-17T15:38:36.674Z,98891.34
2022-08-17T15:41:05.151Z,98893.09
2022-08-17T15:43:34.011Z,98877.84
2022-08-17T15:46:13.000Z,98928.13
2022-08-17T15:48:43.576Z,98928.63
2022-08-17T15:51:16.276Z,98891.22
2022-08-17T15:53:49.186Z,98923.56
2022-08-17T15:56:17.853Z,98924.22
2022-08-17T15:58:48.357Z,98924.91
2022-08-17T16:03:01.411Z,98911.03
2022-08-17T16:04:29.849Z,98920.97
2022-08-17T16:07:00.331Z,98915.09
2022-08-17T16:09:28.815Z,98916.97
2022-08-17T16:11:56.975Z,98927.41
2022-08-17T16:14:33.933Z,98924.16
2022-08-17T16:17:39.085Z,98932.00
2022-08-17T16:19:55.245Z,98932.03
2022-08-17T16:22:36.159Z,98937.81
2022-08-17T16:25:12.911Z,98933.66
2022-08-17T16:27:41.574Z,98936.91
2022-08-17T16:30:15.045Z,98904.81
2022-08-17T16:32:47.471Z,98946.47
2022-08-17T16:35:18.346Z,98944.25
2022-08-17T16:37:47.118Z,98916.44
2022-08-17T16:40:17.722Z,98948.16
2022-08-17T16:42:51.512Z,98953.94
2022-08-17T16:45:29.161Z,98946.53
2022-08-17T16:48:01.641Z,98951.44
2022-08-17T16:50:30.711Z,98929.69
2022-08-17T16:53:10.824Z,98952.06
2022-08-17T16:55:39.445Z,98951.59
2022-08-17T16:58:09.482Z,98958.44
2022-08-17T17:00:38.247Z,98956.50
2022-08-17T17:03:20.607Z,98964.19
2022-08-17T17:06:03.865Z,98967.47
2022-08-17T17:08:44.070Z,98971.63
2022-08-17T17:11:39.106Z,98965.38
2022-08-17T17:14:17.179Z,98972.47
2022-08-17T17:17:03.259Z,98972.34
2022-08-17T17:19:57.275Z,98978.16
2022-08-17T17:22:41.338Z,98973.53
2022-08-17T17:25:36.835Z,98940.06
2022-08-17T17:28:46.697Z,98980.41
2022-08-17T17:31:25.813Z,98947.53
2022-08-17T17:34:00.805Z,98975.47
2022-08-17T17:36:50.364Z,98943.22
2022-08-17T17:40:00.490Z,98979.56
2022-08-17T17:42:31.970Z,98960.59
2022-08-17T17:45:21.903Z,98996.06
2022-08-17T17:47:50.714Z,99001.88
2022-08-17T17:50:29.768Z,98967.44
2022-08-17T17:53:12.757Z,98976.22
2022-08-17T17:56:07.246Z,99009.53
2022-08-17T17:59:33.771Z,99000.56
2022-08-17T18:02:47.350Z,99014.63
2022-08-17T18:05:46.544Z,99010.75
2022-08-17T18:08:49.615Z,99020.66
2022-08-17T18:11:37.147Z,99026.31
2022-08-17T18:14:27.505Z,99027.06
2022-08-17T18:16:59.250Z,99014.50
2022-08-17T18:19:31.713Z,99021.41
2022-08-17T18:22:28.940Z,99023.59
2022-08-17T18:24:57.846Z,99029.75
2022-08-17T18:27:35.486Z,99031.53
2022-08-17T18:30:27.616Z,99031.81
2022-08-17T18:33:16.003Z,98997.41
2022-08-17T18:35:59.250Z,99016.53
2022-08-17T18:38:40.801Z,99039.31
2022-08-17T18:41:27.576Z,99036.03
2022-08-17T18:44:31.595Z,99031.81
2022-08-17T18:47:29.710Z,99051.25
2022-08-17T18:50:34.378Z,99016.47
2022-08-17T18:53:42.040Z,99057.16
2022-08-17T18:56:19.265Z,99050.53
2022-08-17T18:59:17.281Z,99054.78
2022-08-17T19:02:27.258Z,99054.66
2022-08-17T19:05:26.198Z,99052.84
2022-08-17T19:08:13.946Z,99018.81
2022-08-17T19:10:46.315Z,99037.84
2022-08-17T19:13:28.561Z,98982.56
2022-08-17T19:16:32.312Z,99052.94
2022-08-17T19:19:14.198Z,99055.59
2022-08-17T19:21:56.438Z,99057.25
2022-08-17T19:24:27.667Z,99062.00
2022-08-17T19:26:57.753Z,99065.22
2022-08-17T19:29:40.346Z,99034.50
2022-08-17T19:32:14.863Z,99066.25
2022-08-17T19:34:44.873Z,99067.69
2022-08-17T19:38:13.053Z,99076.56
2022-08-17T19:40:54.945Z,99076.50
2022-08-17T19:43:28.955Z,99089.81
2022-08-17T19:46:13.336Z,99074.44
2022-08-17T19:49:01.207Z,99038.53
2022-08-17T19:51:41.475Z,99080.63
2022-08-17T19:54:47.949Z,99041.97
2022-08-17T19:57:46.932Z,99065.13
2022-08-17T20:00:19.302Z,99064.59
2022-08-17T20:02:58.104Z,99067.06
2022-08-17T20:05:54.630Z,99023.25
2022-08-17T20:08:31.614Z,99072.47
2022-08-17T20:11:25.220Z,99041.28
2022-08-17T20:14:20.666Z,99039.84
2022-08-17T20:16:49.597Z,99065.88
2022-08-17T20:19:20.418Z,99073.00
2022-08-17T20:22:25.194Z,99034.41
2022-08-17T20:25:07.484Z,99076.50
2022-08-17T20:27:53.887Z,99072.56
2022-08-17T20:30:41.508Z,99057.13
2022-08-17T20:33:34.927Z,99054.72
2022-08-17T20:36:16.187Z,99078.03
2022-08-17T20:38:56.088Z,99025.97
2022-08-17T20:41:30.902Z,99086.94
2022-08-17T20:43:59.262Z,99049.44
2022-08-17T20:46:37.405Z,99100.22
2022-08-17T20:49:41.567Z,99075.56
2022-08-17T20:52:45.276Z,99103.56
2022-08-17T20:55:51.350Z,99107.91
2022-08-17T20:58:30.624Z,99115.63
2022-08-17T21:01:00.523Z,99122.31
2022-08-17T21:03:47.645Z,99118.16
2022-08-17T21:06:21.971Z,99119.59
2022-08-17T21:09:34.824Z,99114.63
2022-08-17T21:12:05.443Z,99090.44
2022-08-17T21:15:32.373Z,99112.53
2022-08-17T21:18:16.626Z,99108.66
2022-08-17T21:21:16.825Z,99081.97
2022-08-17T21:24:00.260Z,99108.69
2022-08-17T21:26:55.668Z,99097.53
2022-08-17T21:29:30.812Z,99112.06
2022-08-17T21:32:03.709Z,99116.91
2022-08-17T21:35:04.927Z,99109.28
2022-08-17T21:37:50.340Z,99117.78
2022-08-17T21:40:32.295Z,99080.69
2022-08-17T21:43:08.508Z,99126.31
2022-08-17T21:45:42.018Z,99120.09
2022-08-17T21:48:25.598Z,99125.69
2022-08-17T21:51:12.384Z,99118.84
2022-08-17T21:53:56.778Z,99127.78
2022-08-17T21:56:38.995Z,99130.03
2022-08-17T21:59:40.543Z,99142.06
2022-08-17T22:02:20.121Z,99142.72
2022-08-17T22:05:08.925Z,99147.28
2022-08-17T22:07:59.082Z,99071.56
2022-08-17T22:10:42.082Z,99136.69
2022-08-17T22:13:17.778Z,99141.66
2022-08-17T22:16:15.737Z,99142.72
2022-08-17T22:18:58.261Z,99141.47
2022-08-17T22:21:26.887Z,99131.72
2022-08-17T22:24:07.917Z,99138.78
2022-08-17T22:27:21.687Z,99138.38
2022-08-17T22:29:57.608Z,99143.75
2022-08-17T22:32:45.764Z,99138.13
2022-08-17T22:35:37.878Z,99099.97
2022-08-17T22:38:21.561Z,99132.72
2022-08-17T22:41:32.703Z,99134.63
2022-08-17T22:44:23.454Z,99126.91
2022-08-17T22:47:19.243Z,99125.06
2022-08-17T22:49:58.912Z,99123.41
2022-08-17T22:53:03.613Z,99096.03
2022-08-17T22:55:53.054Z,99130.22
2022-08-17T22:58:43.897Z,99127.53
2022-08-17T23:01:34.986Z,99127.09
2022-08-17T23:04:31.434Z,99084.59
2022-08-17T23:06:59.827Z,99078.38
2022-08-17T23:09:28.181Z,99129.38
2022-08-17T23:11:58.912Z,99129.38
2022-08-17T23:14:31.779Z,99121.69
2022-08-17T23:17:01.402Z,99130.81
2022-08-17T23:19:31.853Z,99123.94
2022-08-17T23:22:02.351Z,99117.31
2022-08-17T23:24:38.270Z,99115.78
2022-08-17T23:27:07.905Z,99118.69
2022-08-17T23:29:39.448Z,99121.97
2022-08-17T23:32:07.458Z,99074.72
2022-08-17T23:34:39.070Z,99103.97
2022-08-17T23:37:08.942Z,99094.47
2022-08-17T23:39:37.553Z,99068.94
2022-08-17T23:42:11.340Z,99089.69
2022-08-17T23:44:41.877Z,99099.25
2022-08-17T23:47:10.998Z,99061.03
2022-08-17T23:49:40.509Z,99101.53
2022-08-17T23:52:15.044Z,99070.81
2022-08-17T23:54:47.847Z,99095.91
2022-08-17T23:57:19.045Z,99095.47
2022-08-17T23:59:48.049Z,99068.53
